createdAt,value
2022-11-22T00:00:21.644Z,2.40
2022-11-22T00:02:48.421Z,2.40
2022-11-22T00:12:25.244Z,2.40
2022-11-22T00:28:05.413Z,2.40
2022-11-22T00:45:00.955Z,2.50
2022-11-22T00:50:49.770Z,2.50
2022-11-22T00:53:16.532Z,2.50
2022-11-22T00:55:44.713Z,2.60
2022-11-22T01:00:12.813Z,2.60
2022-11-22T01:10:54.833Z,2.60
2022-11-22T01:13:21.610Z,2.60
2022-11-22T01:16:33.194Z,2.60
2022-11-22T01:28:30.110Z,2.60
2022-11-22T01:30:56.883Z,2.60
2022-11-22T01:41:52.096Z,2.70
2022-11-22T01:44:19.737Z,2.70
2022-11-22T01:50:42.824Z,2.70
2022-11-22T01:53:17.825Z,2.60
2022-11-22T01:55:44.656Z,2.70
2022-11-22T02:04:29.938Z,2.70
2022-11-22T02:13:22.566Z,2.70
2022-11-22T02:20:43.466Z,2.70
2022-11-22T02:23:36.730Z,2.70
2022-11-22T02:26:03.957Z,2.70
2022-11-22T02:30:13.533Z,2.70
2022-11-22T02:35:37.423Z,2.70
2022-11-22T02:40:13.460Z,2.80
2022-11-22T03:02:24.221Z,3.00
2022-11-22T03:09:42.107Z,3.10
2022-11-22T03:21:20.419Z,3.10
2022-11-22T03:23:47.211Z,3.10
2022-11-22T03:26:13.982Z,3.10
2022-11-22T03:28:40.810Z,3.10
2022-11-22T03:36:26.117Z,3.20
2022-11-22T03:43:05.190Z,3.20
2022-11-22T03:47:36.271Z,3.30
2022-11-22T03:51:24.683Z,3.30
2022-11-22T03:55:41.229Z,3.30
2022-11-22T03:58:08.044Z,3.30
2022-11-22T04:01:27.020Z,3.30
2022-11-22T04:14:46.171Z,3.40
2022-11-22T04:17:13.772Z,3.40
2022-11-22T04:20:00.519Z,3.40
2022-11-22T04:22:27.265Z,3.40
2022-11-22T04:25:12.737Z,3.40
2022-11-22T04:36:19.197Z,3.40
2022-11-22T04:38:45.992Z,3.40
2022-11-22T04:41:12.758Z,3.30
2022-11-22T04:44:05.593Z,3.30
2022-11-22T04:46:32.340Z,3.30
2022-11-22T04:48:59.120Z,3.30
2022-11-22T04:51:44.723Z,3.30
2022-11-22T05:00:39.041Z,3.40
2022-11-22T05:03:06.069Z,3.50
2022-11-22T05:16:30.484Z,3.50
2022-11-22T05:19:00.083Z,3.50
2022-11-22T05:45:18.711Z,3.60
2022-11-22T05:49:09.611Z,3.60
2022-11-22T05:55:49.210Z,3.60
2022-11-22T06:04:59.452Z,3.60
2022-11-22T06:07:26.301Z,3.60
2022-11-22T06:16:52.387Z,3.50
2022-11-22T06:23:07.423Z,3.50
2022-11-22T06:25:34.369Z,3.50
2022-11-22T06:28:01.361Z,3.50
2022-11-22T06:30:28.139Z,3.40
2022-11-22T06:32:54.871Z,3.40
2022-11-22T06:36:19.894Z,3.40
2022-11-22T06:38:46.920Z,3.40
2022-11-22T06:41:15.360Z,3.30
2022-11-22T06:45:52.280Z,3.30
2022-11-22T06:48:19.055Z,3.30
2022-11-22T06:54:46.534Z,3.30
2022-11-22T06:57:14.545Z,3.30
2022-11-22T07:00:38.114Z,3.30
2022-11-22T07:10:09.494Z,3.30
2022-11-22T07:15:20.628Z,3.30
2022-11-22T07:17:47.371Z,3.30
2022-11-22T07:21:27.861Z,3.40
2022-11-22T07:23:55.110Z,3.40
2022-11-22T07:26:22.760Z,3.40
2022-11-22T07:28:49.542Z,3.50
2022-11-22T07:31:16.997Z,3.60
2022-11-22T07:33:43.820Z,3.60
2022-11-22T07:45:23.018Z,4.10
2022-11-22T07:47:49.811Z,4.10
2022-11-22T07:51:37.103Z,4.20
2022-11-22T07:54:03.996Z,4.30
2022-11-22T07:57:24.463Z,4.40
2022-11-22T08:01:30.573Z,4.60
2022-11-22T08:11:28.783Z,4.90
2022-11-22T08:13:55.552Z,5.10
2022-11-22T08:16:22.305Z,5.10
2022-11-22T08:18:49.569Z,5.20
2022-11-22T08:21:17.290Z,5.20
2022-11-22T08:23:44.252Z,5.30
2022-11-22T08:30:45.818Z,5.40
2022-11-22T08:34:22.521Z,5.30
2022-11-22T08:36:49.334Z,5.30
2022-11-22T08:41:29.248Z,5.30
2022-11-22T08:43:56.024Z,5.30
2022-11-22T08:46:22.804Z,5.30
2022-11-22T08:48:51.703Z,5.30
2022-11-22T08:51:18.459Z,5.30
2022-11-22T08:54:36.190Z,5.40
2022-11-22T09:01:03.444Z,5.40
2022-11-22T09:03:30.267Z,5.40
2022-11-22T09:10:08.130Z,5.60
2022-11-22T09:13:58.478Z,5.60
2022-11-22T09:18:53.531Z,5.70
2022-11-22T09:22:17.330Z,5.80
2022-11-22T09:29:25.407Z,6.00
2022-11-22T09:34:41.740Z,6.50
2022-11-22T09:40:02.722Z,6.70
2022-11-22T09:43:34.399Z,6.80
2022-11-22T09:46:28.431Z,7.00
2022-11-22T09:49:29.368Z,7.00
2022-11-22T09:52:09.396Z,7.20
2022-11-22T09:56:15.531Z,7.50
2022-11-22T10:01:45.911Z,7.70
2022-11-22T10:04:27.802Z,7.70
2022-11-22T10:10:22.302Z,7.80
2022-11-22T10:12:56.833Z,7.80
2022-11-22T10:15:59.824Z,7.80
2022-11-22T10:24:48.065Z,7.90
2022-11-22T10:29:46.968Z,8.10
2022-11-22T10:32:27.871Z,8.20
2022-11-22T10:39:44.304Z,8.40
2022-11-22T10:42:44.957Z,8.50
2022-11-22T10:45:17.740Z,8.50
2022-11-22T10:47:59.389Z,8.50
2022-11-22T10:51:08.347Z,8.60
2022-11-22T10:54:13.122Z,8.60
2022-11-22T10:56:50.114Z,8.70
2022-11-22T10:59:35.727Z,8.60
2022-11-22T11:07:04.593Z,8.70
2022-11-22T11:11:26.673Z,8.70
2022-11-22T11:16:53.868Z,8.60
2022-11-22T11:19:22.467Z,8.60
2022-11-22T11:23:15.861Z,8.60
2022-11-22T11:25:44.462Z,8.60
2022-11-22T11:32:08.297Z,8.70
2022-11-22T11:34:35.147Z,8.80
2022-11-22T11:39:28.750Z,8.80
2022-11-22T11:41:55.794Z,8.80
2022-11-22T11:45:25.179Z,8.90
2022-11-22T11:47:52.188Z,9.00
2022-11-22T11:52:20.348Z,9.20
2022-11-22T11:54:48.558Z,9.20
2022-11-22T11:58:23.843Z,9.20
2022-11-22T12:00:51.277Z,9.30
2022-11-22T12:03:19.570Z,9.30
2022-11-22T12:05:46.403Z,9.30
2022-11-22T12:08:30.053Z,9.30
2022-11-22T12:11:00.107Z,9.30
2022-11-22T12:17:24.855Z,9.50
2022-11-22T12:20:05.786Z,9.60
2022-11-22T12:22:50.524Z,9.70
2022-11-22T12:25:37.766Z,9.80
2022-11-22T12:28:23.201Z,10.10
2022-11-22T12:30:55.573Z,10.00
2022-11-22T12:36:04.848Z,10.10
2022-11-22T12:38:39.330Z,10.10
2022-11-22T12:41:07.806Z,10.00
2022-11-22T12:43:41.187Z,9.90
2022-11-22T12:46:19.340Z,9.80
2022-11-22T12:48:53.157Z,9.70
2022-11-22T12:53:35.481Z,9.60
2022-11-22T12:56:33.019Z,9.60
2022-11-22T12:59:19.105Z,9.60
2022-11-22T13:01:49.495Z,9.60
2022-11-22T13:04:25.942Z,9.50
2022-11-22T13:07:35.837Z,9.50
2022-11-22T13:10:28.424Z,9.50
2022-11-22T13:12:56.494Z,9.50
2022-11-22T13:15:27.943Z,9.50
2022-11-22T13:17:54.787Z,9.40
2022-11-22T13:20:26.888Z,9.40
2022-11-22T13:23:21.343Z,9.40
2022-11-22T13:26:08.024Z,9.30
2022-11-22T13:28:38.114Z,9.30
2022-11-22T13:31:10.772Z,9.30
2022-11-22T13:33:54.997Z,9.20
2022-11-22T13:36:42.119Z,9.20
2022-11-22T13:39:18.796Z,9.20
2022-11-22T13:43:17.881Z,9.10
2022-11-22T13:45:48.160Z,9.10
2022-11-22T13:48:35.086Z,9.10
2022-11-22T13:51:02.218Z,9.10
2022-11-22T13:53:30.812Z,9.00
2022-11-22T13:57:39.619Z,9.00
2022-11-22T14:00:15.650Z,9.00
2022-11-22T14:02:49.735Z,8.90
2022-11-22T14:05:25.534Z,8.90
2022-11-22T14:07:53.397Z,8.90
2022-11-22T14:10:45.731Z,8.80
2022-11-22T14:13:33.689Z,8.80
2022-11-22T14:16:06.680Z,8.70
2022-11-22T14:19:21.441Z,8.70
2022-11-22T14:22:00.246Z,8.70
2022-11-22T14:27:08.180Z,8.60
2022-11-22T14:29:53.895Z,8.70
2022-11-22T14:32:24.407Z,8.60
2022-11-22T14:35:03.396Z,8.60
2022-11-22T14:37:31.837Z,8.60
2022-11-22T14:40:07.412Z,8.60
2022-11-22T14:42:48.828Z,8.60
2022-11-22T14:45:43.365Z,8.60
2022-11-22T14:48:19.682Z,8.50
2022-11-22T14:50:51.629Z,8.50
2022-11-22T14:53:34.465Z,8.50
2022-11-22T14:56:27.763Z,8.50
2022-11-22T14:59:39.870Z,8.40
2022-11-22T15:02:16.580Z,8.40
2022-11-22T15:09:10.677Z,8.30
2022-11-22T15:09:18.208Z,8.30
2022-11-22T15:11:18.191Z,8.30
2022-11-22T15:13:52.569Z,8.20
2022-11-22T15:59:02.785Z,7.50
2022-11-22T16:01:29.684Z,7.40
2022-11-22T16:03:57.833Z,7.40
2022-11-22T16:06:29.789Z,7.40
2022-11-22T16:09:02.051Z,7.40
2022-11-22T16:11:34.182Z,7.40
2022-11-22T16:14:00.982Z,7.30
2022-11-22T16:16:31.959Z,7.30
2022-11-22T16:19:23.907Z,7.30
2022-11-22T16:22:00.917Z,7.30
2022-11-22T16:24:30.542Z,7.30
2022-11-22T16:28:30.162Z,7.30
2022-11-22T16:31:02.132Z,7.30
2022-11-22T16:33:29.193Z,7.20
2022-11-22T16:35:57.340Z,7.20
2022-11-22T16:38:24.581Z,7.30
2022-11-22T16:40:51.453Z,7.20
2022-11-22T16:43:22.491Z,7.30
2022-11-22T16:45:49.825Z,7.30
2022-11-22T16:48:36.369Z,7.20
2022-11-22T16:51:09.671Z,7.30
2022-11-22T16:54:56.221Z,7.30
2022-11-22T16:57:23.000Z,7.20
2022-11-22T16:59:50.059Z,7.20
2022-11-22T17:02:17.436Z,7.20
2022-11-22T17:04:44.921Z,7.20
2022-11-22T17:07:12.043Z,7.20
2022-11-22T17:09:38.932Z,7.20
2022-11-22T17:12:19.200Z,7.20
2022-11-22T17:14:48.474Z,7.20
2022-11-22T17:17:15.415Z,7.20
2022-11-22T17:19:57.595Z,7.10
2022-11-22T17:22:24.438Z,7.10
2022-11-22T17:24:51.412Z,7.10
2022-11-22T17:28:36.196Z,7.10
2022-11-22T17:31:03.039Z,7.00
2022-11-22T17:35:57.070Z,7.00
2022-11-22T17:38:23.819Z,6.90
2022-11-22T17:40:53.132Z,6.90
2022-11-22T17:43:19.887Z,6.80
2022-11-22T17:47:08.924Z,6.70
2022-11-22T17:49:35.757Z,6.70
2022-11-22T17:52:02.531Z,6.60
2022-11-22T17:58:27.175Z,6.60
2022-11-22T18:01:03.326Z,6.60
2022-11-22T18:03:30.352Z,6.60
2022-11-22T18:05:57.215Z,6.50
2022-11-22T18:10:11.919Z,6.50
2022-11-22T18:12:42.155Z,6.50
2022-11-22T18:15:10.018Z,6.40
2022-11-22T18:17:36.851Z,6.40
2022-11-22T18:20:04.229Z,6.30
2022-11-22T18:22:31.123Z,6.30
2022-11-22T18:24:58.102Z,6.20
2022-11-22T18:27:24.863Z,6.20
2022-11-22T18:29:51.741Z,6.20
2022-11-22T18:32:18.603Z,6.20
2022-11-22T18:34:45.472Z,6.10
2022-11-22T18:38:35.876Z,6.10
2022-11-22T18:41:02.976Z,6.10
2022-11-22T18:43:29.776Z,6.10
2022-11-22T18:46:03.221Z,6.10
2022-11-22T18:48:30.107Z,6.10
2022-11-22T18:53:29.037Z,6.00
2022-11-22T19:02:33.675Z,6.00
2022-11-22T19:05:01.975Z,6.00
2022-11-22T19:07:28.783Z,5.90
2022-11-22T19:12:29.113Z,5.90
2022-11-22T19:14:55.879Z,5.80
2022-11-22T19:17:22.642Z,5.80
2022-11-22T19:31:12.860Z,5.60
2022-11-22T19:36:21.186Z,5.60
2022-11-22T19:44:23.380Z,5.50
2022-11-22T19:53:03.574Z,5.40
2022-11-22T20:03:06.515Z,5.30
2022-11-22T20:08:24.858Z,5.30
2022-11-22T20:15:00.264Z,5.20
2022-11-22T20:17:27.152Z,5.20
2022-11-22T20:19:53.917Z,5.10
2022-11-22T20:27:28.256Z,5.10
2022-11-22T20:29:55.259Z,5.10
2022-11-22T20:32:23.147Z,5.10
2022-11-22T20:34:49.968Z,5.00
2022-11-22T20:55:04.641Z,4.90
2022-11-22T21:00:29.951Z,4.80
2022-11-22T21:02:56.740Z,4.80
2022-11-22T21:09:19.918Z,4.70
2022-11-22T21:11:48.073Z,4.70
2022-11-22T21:15:05.477Z,4.60
2022-11-22T21:17:55.615Z,4.50
2022-11-22T21:20:19.218Z,4.50
2022-11-22T21:23:40.648Z,4.40
2022-11-22T21:26:07.794Z,4.40
2022-11-22T21:28:35.736Z,4.30
2022-11-22T21:31:02.815Z,4.20
2022-11-22T21:33:31.196Z,4.20
2022-11-22T21:41:43.586Z,4.10
2022-11-22T21:44:10.910Z,4.10
2022-11-22T21:46:37.947Z,4.10
2022-11-22T21:50:58.610Z,4.00
2022-11-22T21:53:25.890Z,4.00
2022-11-22T21:55:54.124Z,4.00
2022-11-22T21:58:21.535Z,4.00
2022-11-22T22:00:49.067Z,3.90
2022-11-22T22:06:00.638Z,3.80
2022-11-22T22:08:29.322Z,3.70
2022-11-22T22:13:10.128Z,3.70
2022-11-22T22:22:01.166Z,3.80
2022-11-22T22:24:27.931Z,3.80
2022-11-22T22:26:54.759Z,3.80
2022-11-22T22:29:21.544Z,3.80
2022-11-22T22:31:48.268Z,3.90
2022-11-22T22:34:16.332Z,3.90
2022-11-22T22:45:22.674Z,3.80
2022-11-22T22:47:49.488Z,3.90
2022-11-22T22:53:49.225Z,3.80
2022-11-22T22:57:38.526Z,3.80
2022-11-22T23:02:03.204Z,3.70
2022-11-22T23:04:30.178Z,3.70
2022-11-22T23:06:56.922Z,3.70
2022-11-22T23:09:23.831Z,3.60
2022-11-22T23:12:09.286Z,3.60
2022-11-22T23:14:36.055Z,3.60
2022-11-22T23:17:02.883Z,3.60
2022-11-22T23:19:29.939Z,3.50
2022-11-22T23:21:56.983Z,3.50
2022-11-22T23:25:17.483Z,3.50
2022-11-22T23:27:44.311Z,3.50
2022-11-22T23:30:11.274Z,3.50
2022-11-22T23:32:38.057Z,3.50
2022-11-22T23:38:26.077Z,3.50
2022-11-22T23:47:39.821Z,3.50
2022-11-22T23:53:41.219Z,3.50
2022-11-22T23:57:19.317Z,3.50
